HAVK1: Arkansas River, Hutchinson, KS

Data processed at Wed May 22 2019 23:50


All information presented herein is the property of the government of the United States of America and may be revised or deleted at any time without prior notice.
Dissemination of this information without the expressed written consent of the Public Affairs Office, Tulsa District U.S. Army Corps of Engineers is strictly prohibited.
These data are gathered electronically and, as presented, have not undergone any form of quality control. These data are not guaranteed to be valid or correct.
Go to home page.
Go to station list.
Go to home page.

Upstream stations:

Downstream station:
Previous Day
Next Day
Current Day
    
SHEF ID:       HAVK1     ARKANSAS R NR HUTCHINSON, KS
STATION TYPE:  
Regulating: Stage =    10.00, Flow =     8214

               PRECIP     STAGE  RIV-FLOW  BAT-LOAD
                   in        ft       cfs      volt
              Ccp-Rev   Ccp-Rev   Ccp-Rev   Ccp-Rev
(US/Central)
05/22 00:00      0.00     12.16     13249     12.89
05/22 01:00      ----     12.20     13327      ----
05/22 02:00      ----     12.35     13622      ----
05/22 03:00      0.00      ----      ----     12.83
05/22 04:00      0.00     12.58     14113     12.83
05/22 05:00      0.00     12.63     14235     12.77
05/22 06:00      0.00     12.68     14411     12.77
05/22 07:00      0.00     12.74     14627     12.83
05/22 08:00      0.00     12.77     14759     12.89
05/22 09:00      0.00     12.77     14759     13.30
05/22 10:00      0.00     12.79     14850     13.77
05/22 11:00      0.00     12.78     14804     13.53
05/22 12:00      0.00      ----      ----     14.00
05/22 13:00      0.00     12.80     14895     14.06
05/22 14:00      0.00     12.76     14714     13.59
05/22 15:00      0.00     12.76     14714     13.53
05/22 16:00      0.00     12.76     14714     13.53
05/22 17:00      0.00     12.74     14627     13.48
05/22 18:00      0.00     12.68     14411     13.53
05/22 19:00      0.00     12.67     14376     13.30
05/22 20:00      0.00     12.62     14210     13.12
05/22 21:00      0.00     12.61     14186     13.07
05/22 22:00      0.00     12.57     14089     13.00
05/22 23:00      0.00     12.54     14016     13.00